createdAt,value
2017-09-18T00:02:20.996Z,61.53
2017-09-18T00:04:49.163Z,66.53
2017-09-18T00:07:17.899Z,64.53
2017-09-18T00:09:46.103Z,64.67
2017-09-18T00:12:14.389Z,78.17
2017-09-18T00:14:42.759Z,82.10
2017-09-18T00:17:11.028Z,78.37
2017-09-18T00:19:39.347Z,85.27
2017-09-18T00:22:07.617Z,91.87
2017-09-18T00:24:35.873Z,101.37
2017-09-18T00:27:04.141Z,107.27
2017-09-18T00:29:32.411Z,112.23
2017-09-18T00:32:00.721Z,117.73
2017-09-18T00:34:29.507Z,110.50
2017-09-18T00:36:57.832Z,122.83
2017-09-18T00:39:26.134Z,133.60
2017-09-18T00:41:54.328Z,121.17
2017-09-18T00:44:22.598Z,115.87
2017-09-18T00:46:50.894Z,143.27
2017-09-18T00:49:19.171Z,151.93
2017-09-18T00:51:47.658Z,141.63
2017-09-18T00:54:16.252Z,154.57
2017-09-18T00:56:44.672Z,136.63
2017-09-18T00:59:13.337Z,104.73
2017-09-18T01:01:41.524Z,117.90
2017-09-18T01:04:10.575Z,110.87
2017-09-18T01:06:39.772Z,79.43
2017-09-18T01:09:08.095Z,75.17
2017-09-18T01:11:37.077Z,69.17
2017-09-18T01:14:05.594Z,85.87
2017-09-18T01:16:33.885Z,80.40
2017-09-18T01:19:02.879Z,94.67
2017-09-18T01:21:31.257Z,79.27
2017-09-18T01:23:59.664Z,102.63
2017-09-18T01:26:28.580Z,92.03
2017-09-18T01:28:56.828Z,98.53
2017-09-18T01:31:25.142Z,106.23
2017-09-18T01:33:53.395Z,81.50
2017-09-18T01:36:21.792Z,97.20
2017-09-18T01:38:50.031Z,89.37
2017-09-18T01:41:18.507Z,109.20
2017-09-18T01:43:46.737Z,104.43
2017-09-18T01:46:15.040Z,84.87
2017-09-18T01:48:43.404Z,114.83
2017-09-18T01:51:11.651Z,129.20
2017-09-18T01:53:40.531Z,121.07
2017-09-18T01:56:08.768Z,88.07
2017-09-18T01:58:37.680Z,92.17
2017-09-18T02:01:05.952Z,78.40
2017-09-18T02:03:34.399Z,67.93
2017-09-18T02:06:02.920Z,90.77
2017-09-18T02:08:31.100Z,78.40
2017-09-18T02:10:59.388Z,90.67
2017-09-18T02:13:28.406Z,102.20
2017-09-18T02:15:57.528Z,118.70
2017-09-18T02:18:25.733Z,94.53
2017-09-18T02:20:54.294Z,70.33
2017-09-18T02:23:22.652Z,64.70
2017-09-18T02:25:51.048Z,62.97
2017-09-18T02:28:19.572Z,56.20
2017-09-18T02:30:47.952Z,49.53
2017-09-18T02:33:16.160Z,56.17
2017-09-18T02:35:44.409Z,47.43
2017-09-18T02:38:12.552Z,45.93
2017-09-18T02:40:40.732Z,45.57
2017-09-18T02:43:09.052Z,49.23
2017-09-18T02:45:37.280Z,46.70
2017-09-18T02:48:05.439Z,47.90
2017-09-18T02:50:33.768Z,43.40
2017-09-18T02:53:02.174Z,40.33
2017-09-18T02:55:31.252Z,48.50
2017-09-18T02:58:00.267Z,43.13
2017-09-18T03:00:28.684Z,52.63
2017-09-18T03:02:57.123Z,69.00
2017-09-18T03:05:25.405Z,52.87
2017-09-18T03:07:54.436Z,49.63
2017-09-18T03:10:22.693Z,54.73
2017-09-18T03:12:50.920Z,47.20
2017-09-18T03:15:19.123Z,48.70
2017-09-18T03:17:47.442Z,52.93
2017-09-18T03:20:15.890Z,48.10
2017-09-18T03:22:44.308Z,55.33
2017-09-18T03:25:12.715Z,45.33
2017-09-18T03:27:42.027Z,59.23
2017-09-18T03:30:10.414Z,64.33
2017-09-18T03:32:39.151Z,61.23
2017-09-18T03:35:07.503Z,66.70
2017-09-18T03:37:35.761Z,74.57
2017-09-18T03:40:04.223Z,58.53
2017-09-18T03:42:32.737Z,59.43
2017-09-18T03:45:01.047Z,54.13
2017-09-18T03:47:30.127Z,79.47
2017-09-18T03:49:58.657Z,82.37
2017-09-18T03:52:26.977Z,60.30
2017-09-18T03:54:55.316Z,65.03
2017-09-18T03:57:23.728Z,77.63
2017-09-18T03:59:51.990Z,76.57
2017-09-18T04:02:20.418Z,55.73
2017-09-18T04:04:48.637Z,68.30
2017-09-18T04:07:17.124Z,72.70
2017-09-18T04:09:45.476Z,64.17
2017-09-18T04:12:14.005Z,66.00
2017-09-18T04:14:42.309Z,66.37
2017-09-18T04:17:10.652Z,71.33
2017-09-18T04:19:39.017Z,75.83
2017-09-18T04:22:07.532Z,70.67
2017-09-18T04:24:35.779Z,92.73
2017-09-18T04:27:04.026Z,69.30
2017-09-18T04:29:32.455Z,72.57
2017-09-18T04:32:01.148Z,73.70
2017-09-18T04:34:29.628Z,63.03
2017-09-18T04:36:58.566Z,68.53
2017-09-18T04:39:27.194Z,81.23
2017-09-18T04:41:55.487Z,91.90
2017-09-18T04:44:23.752Z,84.10
2017-09-18T04:46:51.989Z,69.07
2017-09-18T04:49:20.702Z,66.40
2017-09-18T04:51:49.159Z,61.10
2017-09-18T04:54:17.615Z,68.57
2017-09-18T04:56:46.288Z,63.30
2017-09-18T04:59:14.647Z,59.90
2017-09-18T05:01:43.114Z,62.80
2017-09-18T05:04:11.427Z,65.33
2017-09-18T05:06:39.794Z,60.23
2017-09-18T05:09:08.910Z,57.47
2017-09-18T05:11:37.452Z,70.93
2017-09-18T05:14:05.716Z,65.47
2017-09-18T05:16:34.064Z,63.17
2017-09-18T05:19:03.620Z,68.57
2017-09-18T05:21:32.958Z,62.87
2017-09-18T05:24:01.449Z,63.20
2017-09-18T05:26:29.871Z,62.80
2017-09-18T05:28:58.333Z,57.90
2017-09-18T05:31:27.042Z,59.20
2017-09-18T05:33:55.570Z,55.90
2017-09-18T05:36:23.985Z,52.97
2017-09-18T05:38:53.464Z,46.47
2017-09-18T05:41:22.249Z,40.73
2017-09-18T05:43:50.624Z,43.13
2017-09-18T05:46:18.874Z,40.80
2017-09-18T05:48:47.247Z,36.00
2017-09-18T05:51:15.495Z,31.07
2017-09-18T05:53:43.712Z,36.03
2017-09-18T05:56:12.483Z,33.03
2017-09-18T05:58:40.729Z,36.40
2017-09-18T06:01:09.869Z,34.67
2017-09-18T06:03:39.221Z,24.50
2017-09-18T06:06:07.622Z,23.30
2017-09-18T06:08:36.034Z,28.10
2017-09-18T06:11:04.578Z,22.60
2017-09-18T06:13:32.993Z,17.90
2017-09-18T06:16:01.409Z,19.60
2017-09-18T06:18:29.815Z,19.07
2017-09-18T06:20:58.064Z,18.93
2017-09-18T06:23:26.272Z,19.63
2017-09-18T06:25:54.607Z,23.27
2017-09-18T06:28:22.870Z,19.17
2017-09-18T06:30:51.105Z,21.03
2017-09-18T06:33:20.734Z,20.93
2017-09-18T06:35:49.152Z,23.53
2017-09-18T06:38:17.579Z,19.80
2017-09-18T06:40:55.162Z,16.10
2017-09-18T06:43:23.511Z,16.37
2017-09-18T06:45:51.915Z,12.60
2017-09-18T06:48:20.242Z,15.80
2017-09-18T06:50:48.749Z,17.00
2017-09-18T06:53:17.243Z,17.00
2017-09-18T06:55:45.592Z,23.23
2017-09-18T06:58:13.927Z,21.03
2017-09-18T07:00:42.322Z,17.73
2017-09-18T07:03:10.613Z,20.53
2017-09-18T07:05:39.266Z,13.80
2017-09-18T07:08:08.403Z,13.63
2017-09-18T07:10:37.103Z,15.03
2017-09-18T07:13:05.393Z,16.70
2017-09-18T07:15:33.788Z,13.90
2017-09-18T07:18:02.297Z,8.50
2017-09-18T07:20:31.328Z,10.43
2017-09-18T07:23:00.390Z,10.00
2017-09-18T07:25:28.847Z,8.50
2017-09-18T07:27:57.268Z,8.80
2017-09-18T07:30:25.442Z,11.03
2017-09-18T07:32:53.780Z,12.10
2017-09-18T07:35:22.232Z,8.63
2017-09-18T07:37:51.154Z,10.97
2017-09-18T07:40:19.924Z,8.93
2017-09-18T07:42:48.149Z,13.30
2017-09-18T07:45:16.403Z,13.00
2017-09-18T07:47:45.960Z,8.00
2017-09-18T07:50:14.456Z,7.80
2017-09-18T07:52:42.836Z,13.10
2017-09-18T07:55:11.105Z,7.33
2017-09-18T07:57:39.570Z,7.93
2017-09-18T08:00:08.006Z,10.10
2017-09-18T08:02:36.401Z,10.80
2017-09-18T08:05:04.622Z,8.10
2017-09-18T08:07:33.047Z,10.13
2017-09-18T08:10:01.491Z,7.07
2017-09-18T08:12:30.514Z,7.00
2017-09-18T08:14:58.813Z,12.83
2017-09-18T08:17:27.207Z,6.43
2017-09-18T08:19:55.522Z,5.73
2017-09-18T08:22:23.754Z,9.23
2017-09-18T08:24:52.096Z,6.00
2017-09-18T08:27:20.537Z,5.90
2017-09-18T08:29:49.121Z,6.10
2017-09-18T08:32:17.700Z,4.97
2017-09-18T08:34:46.114Z,7.67
2017-09-18T08:37:14.580Z,4.27
2017-09-18T08:39:43.494Z,3.77
2017-09-18T08:42:11.935Z,4.93
2017-09-18T08:44:40.247Z,3.53
2017-09-18T08:47:08.487Z,4.50
2017-09-18T08:49:36.799Z,3.57
2017-09-18T08:52:05.024Z,3.53
2017-09-18T08:54:33.291Z,3.53
2017-09-18T08:59:35.996Z,3.53
2017-09-18T09:02:04.187Z,5.77
2017-09-18T09:04:32.653Z,3.97
2017-09-18T09:07:01.101Z,6.23
2017-09-18T09:09:29.415Z,4.70
2017-09-18T09:11:57.812Z,13.50
2017-09-18T09:14:26.263Z,4.33
2017-09-18T09:16:54.788Z,3.17
2017-09-18T09:19:23.950Z,5.53
2017-09-18T09:21:52.514Z,5.50
2017-09-18T09:24:20.856Z,4.53
2017-09-18T09:26:49.237Z,3.07
2017-09-18T09:29:17.643Z,4.13
2017-09-18T09:31:45.944Z,3.50
2017-09-18T09:34:14.174Z,4.00
2017-09-18T09:36:42.845Z,3.90
2017-09-18T09:39:11.815Z,2.87
2017-09-18T09:41:40.113Z,8.33
2017-09-18T09:44:08.393Z,2.63
2017-09-18T09:46:36.806Z,3.13
2017-09-18T09:49:05.141Z,3.70
2017-09-18T09:51:33.327Z,3.27
2017-09-18T09:54:01.550Z,2.40
2017-09-18T09:56:30.021Z,3.10
2017-09-18T09:58:58.445Z,2.80
2017-09-18T10:01:26.877Z,4.13
2017-09-18T10:03:55.300Z,2.17
2017-09-18T10:06:23.913Z,3.83
2017-09-18T10:08:52.298Z,2.47
2017-09-18T10:11:21.773Z,1.80
2017-09-18T10:13:50.129Z,2.60
2017-09-18T10:16:18.340Z,3.60
2017-09-18T10:18:46.618Z,2.20
2017-09-18T10:21:15.322Z,2.27
2017-09-18T10:23:43.934Z,3.50
2017-09-18T10:26:12.241Z,2.50
2017-09-18T10:28:40.877Z,2.03
2017-09-18T10:31:09.356Z,1.83
2017-09-18T10:33:37.708Z,6.33
2017-09-18T10:36:07.032Z,2.70
2017-09-18T10:38:35.504Z,2.30
2017-09-18T10:41:03.858Z,3.63
2017-09-18T10:43:32.248Z,4.80
2017-09-18T10:46:00.797Z,2.37
2017-09-18T10:48:29.856Z,2.83
2017-09-18T10:50:58.303Z,4.13
2017-09-18T10:53:27.458Z,1.93
2017-09-18T10:55:55.679Z,2.90
2017-09-18T10:58:24.120Z,6.13
2017-09-18T11:00:52.427Z,2.03
2017-09-18T11:03:20.669Z,3.60
2017-09-18T11:08:23.706Z,7.97
2017-09-18T11:10:52.219Z,3.97
2017-09-18T11:13:20.744Z,2.93
2017-09-18T11:15:49.066Z,2.50
2017-09-18T11:18:17.460Z,5.07
2017-09-18T11:20:45.908Z,6.30
2017-09-18T11:23:14.926Z,2.80
2017-09-18T11:25:44.045Z,4.73
2017-09-18T11:28:12.492Z,4.30
2017-09-18T11:30:40.963Z,9.20
2017-09-18T11:33:14.550Z,5.13
2017-09-18T11:35:44.639Z,3.93
2017-09-18T11:38:12.920Z,3.43
2017-09-18T11:40:41.293Z,3.70
2017-09-18T11:43:10.015Z,3.33
2017-09-18T11:45:39.420Z,3.50
2017-09-18T11:48:07.781Z,3.77
2017-09-18T11:50:36.832Z,2.97
2017-09-18T11:53:05.371Z,4.97
2017-09-18T11:55:33.768Z,3.90
2017-09-18T11:58:03.064Z,4.80
2017-09-18T12:00:32.047Z,6.07
2017-09-18T12:03:00.498Z,4.43
2017-09-18T12:05:28.954Z,5.60
2017-09-18T12:07:57.196Z,3.20
2017-09-18T12:10:25.708Z,4.80
2017-09-18T12:12:54.880Z,6.60
2017-09-18T12:15:23.257Z,3.27
2017-09-18T12:17:51.607Z,6.13
2017-09-18T12:20:20.023Z,5.40
2017-09-18T12:22:48.665Z,3.00
2017-09-18T12:25:16.953Z,6.20
2017-09-18T12:27:45.369Z,2.50
2017-09-18T12:30:13.879Z,3.60
2017-09-18T12:32:42.342Z,2.30
2017-09-18T12:35:11.575Z,2.60
2017-09-18T12:37:40.063Z,5.67
2017-09-18T12:40:08.403Z,3.90
2017-09-18T12:42:36.621Z,3.70
2017-09-18T12:45:04.993Z,3.00
2017-09-18T12:47:33.264Z,2.10
2017-09-18T12:50:01.656Z,3.43
2017-09-18T12:52:29.925Z,2.60
2017-09-18T12:54:58.309Z,3.37
2017-09-18T12:57:26.593Z,3.50
2017-09-18T12:59:55.328Z,3.30
2017-09-18T13:02:23.520Z,2.50
2017-09-18T13:04:51.984Z,2.83
2017-09-18T13:07:20.447Z,2.90
2017-09-18T13:09:48.855Z,3.03
2017-09-18T13:12:17.288Z,2.30
2017-09-18T13:14:45.692Z,1.97
2017-09-18T13:17:13.899Z,4.50
2017-09-18T13:19:42.161Z,2.23
2017-09-18T13:22:10.463Z,2.53
2017-09-18T13:24:39.479Z,1.97
2017-09-18T13:27:07.698Z,3.53
2017-09-18T13:29:36.772Z,3.20
2017-09-18T13:32:05.255Z,2.70
2017-09-18T13:34:33.935Z,4.17
2017-09-18T13:37:02.322Z,4.10
2017-09-18T13:39:33.519Z,6.60
2017-09-18T13:42:01.803Z,2.37
2017-09-18T13:44:30.193Z,3.20
2017-09-18T13:46:58.473Z,1.87
2017-09-18T13:49:26.989Z,5.93
2017-09-18T13:51:55.256Z,3.37
2017-09-18T13:54:24.246Z,2.00
2017-09-18T13:56:52.750Z,3.57
2017-09-18T13:59:21.076Z,2.00
2017-09-18T14:01:49.509Z,1.70
2017-09-18T14:04:18.816Z,1.80
2017-09-18T14:06:47.291Z,2.17
2017-09-18T14:09:15.756Z,4.33
2017-09-18T14:11:44.161Z,1.73
2017-09-18T14:14:12.689Z,2.10
2017-09-18T14:16:41.119Z,1.80
2017-09-18T14:19:09.527Z,2.40
2017-09-18T14:21:38.848Z,2.27
2017-09-18T14:24:07.406Z,2.20
2017-09-18T14:26:35.673Z,1.90
2017-09-18T14:29:04.149Z,1.63
2017-09-18T14:31:32.382Z,2.27
2017-09-18T14:34:00.876Z,1.70
2017-09-18T14:36:29.141Z,1.80
2017-09-18T14:38:57.691Z,2.17
2017-09-18T14:41:26.265Z,3.73
2017-09-18T14:43:54.562Z,1.63
2017-09-18T14:46:22.933Z,3.67
2017-09-18T14:48:51.343Z,5.57
2017-09-18T14:51:20.187Z,1.97
2017-09-18T14:53:48.810Z,4.60
2017-09-18T14:56:17.341Z,1.73
2017-09-18T14:58:45.779Z,3.27
2017-09-18T15:01:14.191Z,2.23
2017-09-18T15:03:42.607Z,2.37
2017-09-18T15:06:11.195Z,4.00
2017-09-18T15:08:40.616Z,1.57
2017-09-18T15:11:08.859Z,2.70
2017-09-18T15:13:37.053Z,2.07
2017-09-18T15:16:05.538Z,2.20
2017-09-18T15:18:33.827Z,1.73
2017-09-18T15:21:02.259Z,2.47
2017-09-18T15:23:30.712Z,1.77
2017-09-18T15:25:59.088Z,2.20
2017-09-18T15:28:27.755Z,2.70
2017-09-18T15:30:55.989Z,1.50
2017-09-18T15:33:24.348Z,2.23
2017-09-18T15:35:52.811Z,2.47
2017-09-18T15:38:21.031Z,3.03
2017-09-18T15:40:50.122Z,3.50
2017-09-18T15:43:18.645Z,1.87
2017-09-18T15:45:47.242Z,2.67
2017-09-18T15:48:15.983Z,2.10
2017-09-18T15:50:44.451Z,3.07
2017-09-18T15:53:13.756Z,6.50
2017-09-18T15:55:42.181Z,4.80
2017-09-18T15:58:10.373Z,2.30
2017-09-18T16:00:38.710Z,2.90
2017-09-18T16:03:07.076Z,1.87
2017-09-18T16:05:35.543Z,5.23
2017-09-18T16:08:03.983Z,4.57
2017-09-18T16:10:32.366Z,3.10
2017-09-18T16:13:00.588Z,2.57
2017-09-18T16:15:28.837Z,2.50
2017-09-18T16:17:58.179Z,3.30
2017-09-18T16:20:26.710Z,2.97
2017-09-18T16:22:54.982Z,6.43
2017-09-18T16:25:23.194Z,4.03
2017-09-18T16:27:52.080Z,1.60
2017-09-18T16:30:20.335Z,2.10
2017-09-18T16:32:48.576Z,2.87
2017-09-18T16:35:17.071Z,4.73
2017-09-18T16:37:45.508Z,2.03
2017-09-18T16:40:13.862Z,3.20
2017-09-18T16:42:42.195Z,2.80
2017-09-18T16:45:10.529Z,2.90
2017-09-18T16:47:38.767Z,2.37
2017-09-18T16:50:07.228Z,1.50
2017-09-18T16:52:35.563Z,2.00
2017-09-18T16:55:03.922Z,4.20
2017-09-18T16:57:33.211Z,3.10
2017-09-18T17:00:01.541Z,6.20
2017-09-18T17:02:30.944Z,1.90
2017-09-18T17:05:00.360Z,4.40
2017-09-18T17:07:29.119Z,3.03
2017-09-18T17:09:58.473Z,4.77
2017-09-18T17:12:26.867Z,2.70
2017-09-18T17:14:55.275Z,3.30
2017-09-18T17:17:23.715Z,3.87
2017-09-18T17:19:52.162Z,4.93
2017-09-18T17:22:20.644Z,8.93
2017-09-18T17:24:49.209Z,4.10
2017-09-18T17:27:17.464Z,6.70
2017-09-18T17:29:46.193Z,4.83
2017-09-18T17:32:15.005Z,6.00
2017-09-18T17:34:43.651Z,4.57
2017-09-18T17:37:11.988Z,6.40
2017-09-18T17:39:41.322Z,9.13
2017-09-18T17:42:09.702Z,7.70
2017-09-18T17:44:38.502Z,6.87
2017-09-18T17:47:06.857Z,5.43
2017-09-18T17:49:36.064Z,6.33
2017-09-18T17:52:05.185Z,4.90
2017-09-18T17:54:33.562Z,4.87
2017-09-18T17:57:02.724Z,6.10
2017-09-18T17:59:31.057Z,5.43
2017-09-18T18:01:59.394Z,4.80
2017-09-18T18:04:27.653Z,6.20
2017-09-18T18:06:55.978Z,5.60
2017-09-18T18:09:25.048Z,5.77
2017-09-18T18:11:53.668Z,5.73
2017-09-18T18:14:22.180Z,7.33
2017-09-18T18:16:51.259Z,8.40
2017-09-18T18:19:20.582Z,13.10
2017-09-18T18:21:49.642Z,6.93
2017-09-18T18:24:18.867Z,6.33
2017-09-18T18:26:47.932Z,6.40
2017-09-18T18:29:16.238Z,9.63
2017-09-18T18:31:45.463Z,11.23
2017-09-18T18:34:13.913Z,10.53
2017-09-18T18:36:42.939Z,9.50
2017-09-18T18:39:11.216Z,8.97
2017-09-18T18:41:40.233Z,10.87
2017-09-18T18:44:09.149Z,9.23
2017-09-18T18:46:37.633Z,10.77
2017-09-18T18:49:05.904Z,11.37
2017-09-18T18:51:34.397Z,13.37
2017-09-18T18:54:02.805Z,12.70
2017-09-18T18:56:31.383Z,12.37
2017-09-18T18:58:59.821Z,12.50
2017-09-18T19:01:29.837Z,12.43
2017-09-18T19:03:58.207Z,13.23
2017-09-18T19:06:27.395Z,8.90
2017-09-18T19:08:55.628Z,10.60
2017-09-18T19:11:23.987Z,10.33
2017-09-18T19:13:52.592Z,11.90
2017-09-18T19:16:21.034Z,20.73
2017-09-18T19:18:49.895Z,11.20
2017-09-18T19:21:18.291Z,8.57
2017-09-18T19:23:46.703Z,16.07
2017-09-18T19:26:14.971Z,10.80
2017-09-18T19:28:43.241Z,11.03
2017-09-18T19:31:11.645Z,16.50
2017-09-18T19:33:40.353Z,10.50
2017-09-18T19:36:09.075Z,9.03
2017-09-18T19:38:38.531Z,9.60
2017-09-18T19:41:06.965Z,11.27
2017-09-18T19:43:35.257Z,16.30
2017-09-18T19:46:03.550Z,10.07
2017-09-18T19:48:33.090Z,10.40
2017-09-18T19:51:01.395Z,13.00
2017-09-18T19:53:29.831Z,10.87
2017-09-18T19:55:58.141Z,9.60
2017-09-18T19:58:26.804Z,12.97
2017-09-18T20:00:55.769Z,11.60
2017-09-18T20:03:25.392Z,9.97
2017-09-18T20:05:53.778Z,7.70
2017-09-18T20:08:22.626Z,6.83
2017-09-18T20:10:51.553Z,6.13
2017-09-18T20:13:20.065Z,6.10
2017-09-18T20:15:48.443Z,9.13
2017-09-18T20:18:16.995Z,12.97
2017-09-18T20:20:45.412Z,7.97
2017-09-18T20:23:13.779Z,10.80
2017-09-18T20:25:42.387Z,12.70
2017-09-18T20:28:10.938Z,8.37
2017-09-18T20:30:39.212Z,8.13
2017-09-18T20:33:07.692Z,7.90
2017-09-18T20:35:36.653Z,9.30
2017-09-18T20:38:05.101Z,9.60
2017-09-18T20:40:33.698Z,12.37
2017-09-18T20:43:02.568Z,12.40
2017-09-18T20:45:31.476Z,10.80
2017-09-18T20:47:59.811Z,10.07
2017-09-18T20:50:28.150Z,9.97
2017-09-18T20:52:56.514Z,14.13
2017-09-18T20:55:24.847Z,10.43
2017-09-18T20:57:53.519Z,19.33
2017-09-18T21:00:21.925Z,14.00
2017-09-18T21:02:51.842Z,14.63
2017-09-18T21:05:20.316Z,17.27
2017-09-18T21:07:48.682Z,18.93
2017-09-18T21:10:17.963Z,16.83
2017-09-18T21:12:46.230Z,13.63
2017-09-18T21:15:15.277Z,18.77
2017-09-18T21:17:43.549Z,21.13
2017-09-18T21:20:11.865Z,14.10
2017-09-18T21:22:40.137Z,14.30
2017-09-18T21:25:08.411Z,13.00
2017-09-18T21:27:36.631Z,13.77
2017-09-18T21:30:05.032Z,20.50
2017-09-18T21:32:34.202Z,13.20
2017-09-18T21:35:02.460Z,14.30
2017-09-18T21:37:30.688Z,15.10
2017-09-18T21:39:59.114Z,12.63
2017-09-18T21:42:27.412Z,13.57
2017-09-18T21:44:55.811Z,17.20
2017-09-18T21:47:24.787Z,11.50
2017-09-18T21:49:53.340Z,14.47
2017-09-18T21:52:21.644Z,12.73
2017-09-18T21:54:49.951Z,12.03
2017-09-18T21:57:18.327Z,12.63
2017-09-18T21:59:46.730Z,13.90
2017-09-18T22:02:15.179Z,13.23
2017-09-18T22:04:43.674Z,14.33
2017-09-18T22:07:11.909Z,11.23
2017-09-18T22:09:40.143Z,16.33
2017-09-18T22:12:08.573Z,9.97
2017-09-18T22:14:36.870Z,13.60
2017-09-18T22:17:05.148Z,14.13
2017-09-18T22:19:33.743Z,12.03
2017-09-18T22:22:02.797Z,14.27
2017-09-18T22:24:32.239Z,14.77
2017-09-18T22:27:00.989Z,15.53
2017-09-18T22:29:29.505Z,14.37
2017-09-18T22:31:57.733Z,11.93
2017-09-18T22:34:26.142Z,16.23
2017-09-18T22:36:54.433Z,11.57
2017-09-18T22:39:22.713Z,14.57
2017-09-18T22:41:51.021Z,12.00
2017-09-18T22:44:19.225Z,11.83
2017-09-18T22:46:47.543Z,11.20
2017-09-18T22:49:15.917Z,15.20
2017-09-18T22:51:44.413Z,14.60
2017-09-18T22:54:12.670Z,10.47
2017-09-18T22:56:40.941Z,10.27
2017-09-18T22:59:09.364Z,10.33
2017-09-18T23:01:37.802Z,10.83
2017-09-18T23:04:06.130Z,8.83
2017-09-18T23:06:34.597Z,8.80
2017-09-18T23:09:02.988Z,10.33
2017-09-18T23:11:31.369Z,8.03
2017-09-18T23:13:59.791Z,7.87
2017-09-18T23:16:28.177Z,8.07
2017-09-18T23:18:56.409Z,11.57
2017-09-18T23:21:24.772Z,8.73
2017-09-18T23:23:53.201Z,9.93
2017-09-18T23:26:22.155Z,9.70
2017-09-18T23:28:50.384Z,8.77
2017-09-18T23:31:19.210Z,10.63
2017-09-18T23:33:47.567Z,9.33
2017-09-18T23:36:15.987Z,10.57
2017-09-18T23:38:44.382Z,10.93
2017-09-18T23:41:12.711Z,10.70
2017-09-18T23:43:40.971Z,10.30
2017-09-18T23:46:09.295Z,11.17
2017-09-18T23:48:37.568Z,11.87
2017-09-18T23:51:06.007Z,10.50
2017-09-18T23:53:35.373Z,12.10
2017-09-18T23:56:04.349Z,12.83
2017-09-18T23:58:32.781Z,11.83
